MSA237 LIMC-EGPH
Flight info
| Callsign | MSA237 |
|---|---|
| Flight time | N/A |
| Altitude | 36000 |
| Route | AOSTA DCT ORSUD DCT MOLUS DCT IBODI DCT GOTED DCT TRO DCT CLM DCT KOPOR DCT VESAN DCT RATUK DCT SOVAT L613 LEHOC DCT INPIP |
| Aircraft | B738/M-SDE2E3FGHIRWXY/LB1 |
Departure
| Time | 2026-05-07 16:45 |
|---|---|
| Airport | Milan Malpensa International Airport (LIMC) |
Arrival
| Time | N/A |
|---|---|
| Airport | Edinburgh Airport (EGPH) |
| Time | Latitude | Longitude | Altitude | Speed | Heading |
|---|---|---|---|---|---|
| 2026-05-07 16:12 | 45.62229 | 8.71850 | 726 ft | 0 kts | 170° |
| 2026-05-07 16:31 | 45.62241 | 8.71847 | 728 ft | 4 kts | 170° |
| 2026-05-07 16:31 | 45.62267 | 8.71840 | 728 ft | 4 kts | 168° |
| 2026-05-07 16:32 | 45.62293 | 8.71833 | 726 ft | 2 kts | 169° |
| 2026-05-07 16:32 | 45.62314 | 8.71823 | 727 ft | 4 kts | 133° |
| 2026-05-07 16:32 | 45.62321 | 8.71793 | 726 ft | 4 kts | 81° |
| 2026-05-07 16:32 | 45.62319 | 8.71774 | 726 ft | 1 kts | 79° |
| 2026-05-07 16:33 | 45.62319 | 8.71773 | 726 ft | 1 kts | 79° |
| 2026-05-07 16:35 | 45.62326 | 8.71824 | 728 ft | 13 kts | 78° |
| 2026-05-07 16:35 | 45.62250 | 8.71944 | 728 ft | 25 kts | 170° |
| 2026-05-07 16:35 | 45.62052 | 8.71997 | 723 ft | 33 kts | 169° |
| 2026-05-07 16:36 | 45.61806 | 8.72063 | 718 ft | 38 kts | 168° |
| 2026-05-07 16:36 | 45.61548 | 8.72136 | 715 ft | 38 kts | 169° |
| 2026-05-07 16:36 | 45.61294 | 8.72206 | 703 ft | 36 kts | 169° |
| 2026-05-07 16:36 | 45.61126 | 8.72254 | 696 ft | 22 kts | 169° |
| 2026-05-07 16:37 | 45.60978 | 8.72295 | 698 ft | 21 kts | 170° |
| 2026-05-07 16:37 | 45.60834 | 8.72334 | 697 ft | 21 kts | 170° |
| 2026-05-07 16:37 | 45.60704 | 8.72371 | 697 ft | 20 kts | 163° |
| 2026-05-07 16:37 | 45.60635 | 8.72528 | 702 ft | 20 kts | 95° |
| 2026-05-07 16:38 | 45.60622 | 8.72718 | 700 ft | 19 kts | 95° |
| 2026-05-07 16:38 | 45.60609 | 8.72901 | 694 ft | 18 kts | 95° |
| 2026-05-07 16:38 | 45.60595 | 8.73076 | 693 ft | 18 kts | 96° |
| 2026-05-07 16:38 | 45.60612 | 8.73243 | 703 ft | 17 kts | 53° |
| 2026-05-07 16:39 | 45.60713 | 8.73318 | 695 ft | 16 kts | 19° |
| 2026-05-07 16:39 | 45.60819 | 8.73381 | 700 ft | 18 kts | 21° |
| 2026-05-07 16:39 | 45.60974 | 8.73389 | 696 ft | 27 kts | 349° |
| 2026-05-07 16:39 | 45.61161 | 8.73337 | 697 ft | 21 kts | 349° |
| 2026-05-07 16:40 | 45.61276 | 8.73305 | 702 ft | 14 kts | 348° |
| 2026-05-07 16:40 | 45.61389 | 8.73274 | 699 ft | 18 kts | 348° |
| 2026-05-07 16:40 | 45.61509 | 8.73240 | 707 ft | 17 kts | 348° |
| 2026-05-07 16:40 | 45.61519 | 8.73238 | 705 ft | 0 kts | 349° |
| 2026-05-07 16:41 | 45.61596 | 8.73237 | 702 ft | 16 kts | 30° |
| 2026-05-07 16:41 | 45.61623 | 8.73306 | 705 ft | 0 kts | 78° |
| 2026-05-07 16:42 | 45.61629 | 8.73350 | 707 ft | 13 kts | 79° |
| 2026-05-07 16:42 | 45.61600 | 8.73515 | 697 ft | 20 kts | 116° |
| 2026-05-07 16:42 | 45.61589 | 8.73563 | 699 ft | 0 kts | 101° |
| 2026-05-07 16:43 | 45.61587 | 8.73585 | 699 ft | 11 kts | 94° |
| 2026-05-07 16:43 | 45.61643 | 8.73728 | 699 ft | 17 kts | 6° |
| 2026-05-07 16:43 | 45.61681 | 8.73721 | 701 ft | 0 kts | 347° |
| 2026-05-07 16:44 | 45.61768 | 8.73698 | 700 ft | 49 kts | 349° |
| 2026-05-07 16:44 | 45.62407 | 8.73521 | 724 ft | 135 kts | 348° |
| 2026-05-07 16:45 | 45.63555 | 8.73212 | 943 ft | 191 kts | 348° |
| 2026-05-07 16:45 | 45.64966 | 8.72850 | 1589 ft | 220 kts | 349° |
| 2026-05-07 16:45 | 45.66547 | 8.72577 | 2409 ft | 237 kts | 359° |
| 2026-05-07 16:45 | 45.68241 | 8.72622 | 3250 ft | 246 kts | 1° |
| 2026-05-07 16:46 | 45.69912 | 8.72635 | 4349 ft | 236 kts | 359° |
| 2026-05-07 16:46 | 45.71000 | 8.72615 | 5013 ft | 235 kts | 356° |
| 2026-05-07 16:46 | 45.72546 | 8.71944 | 5851 ft | 236 kts | 323° |
| 2026-05-07 16:46 | 45.73581 | 8.70142 | 6660 ft | 239 kts | 291° |
| 2026-05-07 16:47 | 45.73808 | 8.67802 | 7451 ft | 242 kts | 261° |
| 2026-05-07 16:47 | 45.73305 | 8.65499 | 8268 ft | 244 kts | 246° |
| 2026-05-07 16:47 | 45.72576 | 8.63288 | 9050 ft | 248 kts | 244° |
| 2026-05-07 16:47 | 45.71817 | 8.61054 | 9832 ft | 251 kts | 244° |
| 2026-05-07 16:48 | 45.70957 | 8.58841 | 10449 ft | 263 kts | 238° |
| 2026-05-07 16:48 | 45.69918 | 8.56525 | 10663 ft | 290 kts | 237° |
| 2026-05-07 16:48 | 45.68777 | 8.53993 | 10881 ft | 316 kts | 237° |
| 2026-05-07 16:48 | 45.67547 | 8.51240 | 11083 ft | 340 kts | 237° |
| 2026-05-07 16:49 | 45.66247 | 8.48331 | 11584 ft | 352 kts | 237° |
| 2026-05-07 16:49 | 45.64919 | 8.45355 | 12320 ft | 357 kts | 237° |
| 2026-05-07 16:49 | 45.63577 | 8.42348 | 13093 ft | 360 kts | 237° |
| 2026-05-07 16:49 | 45.62184 | 8.39408 | 13812 ft | 364 kts | 232° |
| 2026-05-07 16:50 | 45.60569 | 8.36600 | 14547 ft | 367 kts | 229° |
| 2026-05-07 16:50 | 45.59026 | 8.33664 | 15208 ft | 372 kts | 243° |
| 2026-05-07 16:50 | 45.58344 | 8.30105 | 15882 ft | 375 kts | 266° |
| 2026-05-07 16:50 | 45.58591 | 8.26400 | 16577 ft | 378 kts | 285° |
| 2026-05-07 16:51 | 45.59402 | 8.22813 | 17231 ft | 381 kts | 289° |
| 2026-05-07 16:51 | 45.60273 | 8.19215 | 17823 ft | 387 kts | 289° |
| 2026-05-07 16:51 | 45.61156 | 8.15576 | 18415 ft | 391 kts | 289° |
| 2026-05-07 16:51 | 45.62039 | 8.11882 | 19000 ft | 395 kts | 288° |
| 2026-05-07 16:52 | 45.62917 | 8.08146 | 19562 ft | 399 kts | 288° |
| 2026-05-07 16:52 | 45.63785 | 8.04412 | 20095 ft | 403 kts | 288° |
| 2026-05-07 16:52 | 45.64495 | 8.01336 | 20563 ft | 405 kts | 288° |
| 2026-05-07 16:52 | 45.65280 | 7.97927 | 21010 ft | 409 kts | 288° |
| 2026-05-07 16:53 | 45.66176 | 7.94027 | 21436 ft | 414 kts | 288° |
| 2026-05-07 16:53 | 45.67082 | 7.90079 | 21805 ft | 420 kts | 288° |
| 2026-05-07 16:53 | 45.67994 | 7.86091 | 22259 ft | 423 kts | 288° |
| 2026-05-07 16:53 | 45.68906 | 7.82096 | 22798 ft | 424 kts | 288° |
| 2026-05-07 16:54 | 45.69828 | 7.78048 | 23001 ft | 431 kts | 288° |
| 2026-05-07 16:54 | 45.70747 | 7.74012 | 23526 ft | 429 kts | 288° |
| 2026-05-07 16:54 | 45.71668 | 7.69962 | 24133 ft | 429 kts | 288° |
| 2026-05-07 16:54 | 45.72593 | 7.65884 | 24557 ft | 432 kts | 288° |
| 2026-05-07 16:55 | 45.73521 | 7.61785 | 24958 ft | 435 kts | 288° |
| 2026-05-07 16:55 | 45.74458 | 7.57642 | 25392 ft | 437 kts | 288° |
| 2026-05-07 16:55 | 45.75395 | 7.53490 | 25827 ft | 439 kts | 288° |
| 2026-05-07 16:55 | 45.76338 | 7.49307 | 26135 ft | 444 kts | 288° |
| 2026-05-07 16:56 | 45.77289 | 7.45075 | 26363 ft | 449 kts | 288° |
| 2026-05-07 16:56 | 45.78254 | 7.40801 | 26631 ft | 453 kts | 289° |
| 2026-05-07 16:56 | 45.81508 | 7.33027 | 27058 ft | 460 kts | 313° |
| 2026-05-07 16:57 | 45.83877 | 7.29999 | 27621 ft | 456 kts | 323° |
| 2026-05-07 16:57 | 45.86491 | 7.27363 | 27749 ft | 462 kts | 326° |
| 2026-05-07 16:57 | 45.89177 | 7.24776 | 27806 ft | 468 kts | 326° |
| 2026-05-07 16:57 | 45.91847 | 7.22163 | 27950 ft | 471 kts | 325° |
| 2026-05-07 16:58 | 45.94529 | 7.19461 | 28408 ft | 467 kts | 324° |
| 2026-05-07 16:58 | 45.97178 | 7.16753 | 28684 ft | 468 kts | 324° |
| 2026-05-07 16:58 | 45.99839 | 7.14021 | 28903 ft | 471 kts | 324° |
| 2026-05-07 16:58 | 46.02502 | 7.11286 | 29330 ft | 469 kts | 324° |
| 2026-05-07 16:59 | 46.05168 | 7.08548 | 29579 ft | 471 kts | 324° |
| 2026-05-07 16:59 | 46.07831 | 7.05812 | 30019 ft | 468 kts | 324° |
| 2026-05-07 16:59 | 46.10465 | 7.03104 | 30568 ft | 464 kts | 324° |
| 2026-05-07 16:59 | 46.13072 | 7.00421 | 30819 ft | 466 kts | 324° |
| 2026-05-07 17:00 | 46.18403 | 6.94924 | 31088 ft | 474 kts | 324° |
| 2026-05-07 17:00 | 46.21083 | 6.92156 | 31475 ft | 470 kts | 324° |
| 2026-05-07 17:00 | 46.23699 | 6.89451 | 32331 ft | 457 kts | 324° |
| 2026-05-07 17:01 | 46.26289 | 6.86769 | 32631 ft | 459 kts | 324° |
| 2026-05-07 17:01 | 46.28897 | 6.84065 | 32736 ft | 464 kts | 324° |
| 2026-05-07 17:01 | 46.31528 | 6.81335 | 32906 ft | 467 kts | 324° |
| 2026-05-07 17:01 | 46.34176 | 6.78584 | 33105 ft | 469 kts | 324° |
| 2026-05-07 17:02 | 46.36821 | 6.75834 | 33577 ft | 463 kts | 324° |
| 2026-05-07 17:02 | 46.39418 | 6.73130 | 34111 ft | 458 kts | 324° |
| 2026-05-07 17:02 | 46.41991 | 6.70447 | 34529 ft | 454 kts | 324° |
| 2026-05-07 17:02 | 46.44520 | 6.67729 | 34892 ft | 452 kts | 320° |
| 2026-05-07 17:03 | 46.46815 | 6.64611 | 35129 ft | 452 kts | 314° |
| 2026-05-07 17:03 | 46.48957 | 6.61358 | 35342 ft | 453 kts | 313° |
| 2026-05-07 17:03 | 46.51109 | 6.58007 | 35571 ft | 453 kts | 313° |
| 2026-05-07 17:03 | 46.53256 | 6.54659 | 35840 ft | 452 kts | 313° |
| 2026-05-07 17:04 | 46.55410 | 6.51323 | 36013 ft | 454 kts | 313° |
| 2026-05-07 17:04 | 46.57589 | 6.47974 | 36003 ft | 457 kts | 313° |
| 2026-05-07 17:04 | 46.61980 | 6.41278 | 35996 ft | 457 kts | 313° |
| 2026-05-07 17:05 | 46.66357 | 6.34615 | 36001 ft | 454 kts | 313° |
| 2026-05-07 17:05 | 46.70727 | 6.27944 | 36008 ft | 456 kts | 313° |
| 2026-05-07 17:06 | 46.75109 | 6.21233 | 36010 ft | 457 kts | 313° |
| 2026-05-07 17:06 | 46.79473 | 6.14533 | 36003 ft | 458 kts | 313° |
| 2026-05-07 17:07 | 46.83867 | 6.07770 | 35999 ft | 459 kts | 313° |
| 2026-05-07 17:07 | 46.88252 | 6.01004 | 36003 ft | 458 kts | 313° |
| 2026-05-07 17:08 | 46.92629 | 5.94234 | 35996 ft | 457 kts | 313° |
| 2026-05-07 17:08 | 46.97457 | 5.88236 | 35991 ft | 456 kts | 329° |
| 2026-05-07 17:09 | 47.03060 | 5.83914 | 35998 ft | 454 kts | 333° |
| 2026-05-07 17:09 | 47.08640 | 5.79741 | 35998 ft | 452 kts | 332° |
| 2026-05-07 17:10 | 47.14222 | 5.75485 | 36000 ft | 451 kts | 332° |
| 2026-05-07 17:10 | 47.19761 | 5.71208 | 35997 ft | 449 kts | 332° |
| 2026-05-07 17:11 | 47.25292 | 5.66919 | 36001 ft | 448 kts | 332° |
| 2026-05-07 17:11 | 47.30810 | 5.62632 | 36000 ft | 448 kts | 332° |
| 2026-05-07 17:12 | 47.36318 | 5.58345 | 36002 ft | 447 kts | 332° |
| 2026-05-07 17:12 | 47.41789 | 5.54078 | 36001 ft | 448 kts | 332° |
| 2026-05-07 17:13 | 47.47303 | 5.49767 | 36001 ft | 448 kts | 332° |
| 2026-05-07 17:13 | 47.52539 | 5.44782 | 36002 ft | 448 kts | 317° |
| 2026-05-07 17:14 | 47.56607 | 5.37787 | 36009 ft | 449 kts | 306° |
| 2026-05-07 17:14 | 47.60262 | 5.30271 | 35996 ft | 450 kts | 305° |
| 2026-05-07 17:15 | 47.63934 | 5.22727 | 36000 ft | 451 kts | 306° |
| 2026-05-07 17:15 | 47.67616 | 5.15240 | 36001 ft | 452 kts | 306° |
| 2026-05-07 17:16 | 47.71333 | 5.07704 | 36003 ft | 453 kts | 306° |
| 2026-05-07 17:16 | 47.75061 | 5.00132 | 36000 ft | 454 kts | 306° |
| 2026-05-07 17:17 | 47.78780 | 4.92556 | 36002 ft | 454 kts | 306° |
| 2026-05-07 17:17 | 47.82499 | 4.84956 | 36002 ft | 454 kts | 306° |
| 2026-05-07 17:18 | 47.86212 | 4.77348 | 36003 ft | 453 kts | 306° |
| 2026-05-07 17:18 | 47.89911 | 4.69745 | 36002 ft | 453 kts | 306° |
| 2026-05-07 17:19 | 47.93575 | 4.62196 | 36001 ft | 452 kts | 306° |
| 2026-05-07 17:19 | 47.97251 | 4.54598 | 35998 ft | 451 kts | 305° |
| 2026-05-07 17:20 | 48.00922 | 4.46992 | 35999 ft | 450 kts | 305° |
| 2026-05-07 17:20 | 48.04579 | 4.39393 | 35998 ft | 450 kts | 305° |
| 2026-05-07 17:21 | 48.08221 | 4.31802 | 35999 ft | 449 kts | 305° |
| 2026-05-07 17:21 | 48.11840 | 4.24240 | 36001 ft | 449 kts | 305° |
| 2026-05-07 17:22 | 48.15468 | 4.16640 | 36002 ft | 448 kts | 305° |
| 2026-05-07 17:22 | 48.19087 | 4.09037 | 36003 ft | 448 kts | 305° |
| 2026-05-07 17:23 | 48.22699 | 4.01430 | 36003 ft | 448 kts | 305° |
| 2026-05-07 17:23 | 48.26449 | 3.93955 | 35994 ft | 448 kts | 311° |
| 2026-05-07 17:24 | 48.30720 | 3.87211 | 35997 ft | 448 kts | 314° |
| 2026-05-07 17:24 | 48.35092 | 3.80500 | 36002 ft | 449 kts | 314° |
| 2026-05-07 17:25 | 48.39426 | 3.73732 | 36001 ft | 449 kts | 313° |
| 2026-05-07 17:25 | 48.43737 | 3.66907 | 36000 ft | 450 kts | 313° |
| 2026-05-07 17:26 | 48.48042 | 3.60053 | 36000 ft | 450 kts | 313° |
| 2026-05-07 17:26 | 48.52314 | 3.53236 | 36004 ft | 450 kts | 313° |
| 2026-05-07 17:27 | 48.56616 | 3.46356 | 35999 ft | 450 kts | 313° |
| 2026-05-07 17:27 | 48.60914 | 3.39465 | 36001 ft | 450 kts | 313° |
| 2026-05-07 17:28 | 48.65209 | 3.32560 | 35999 ft | 450 kts | 313° |
| 2026-05-07 17:28 | 48.69497 | 3.25649 | 36000 ft | 450 kts | 313° |
| 2026-05-07 17:29 | 48.73782 | 3.18724 | 36000 ft | 450 kts | 313° |
| 2026-05-07 17:29 | 48.78034 | 3.11837 | 36004 ft | 450 kts | 313° |
| 2026-05-07 17:30 | 48.82312 | 3.04888 | 36001 ft | 450 kts | 313° |
| 2026-05-07 17:30 | 48.87115 | 2.98852 | 35998 ft | 450 kts | 329° |
| 2026-05-07 17:31 | 48.92552 | 2.94158 | 35999 ft | 450 kts | 330° |
| 2026-05-07 17:31 | 48.98011 | 2.89494 | 35999 ft | 450 kts | 330° |
| 2026-05-07 17:32 | 49.03418 | 2.84793 | 35998 ft | 449 kts | 329° |
| 2026-05-07 17:32 | 49.07963 | 2.80800 | 36002 ft | 449 kts | 329° |
| 2026-05-07 17:33 | 49.14254 | 2.75248 | 36000 ft | 449 kts | 329° |
| 2026-05-07 17:33 | 49.19663 | 2.70462 | 36002 ft | 449 kts | 329° |
| 2026-05-07 17:34 | 49.25076 | 2.65663 | 35999 ft | 449 kts | 329° |
| 2026-05-07 17:34 | 49.30487 | 2.60855 | 36001 ft | 449 kts | 329° |
| 2026-05-07 17:35 | 49.34982 | 2.56850 | 35999 ft | 449 kts | 329° |
| 2026-05-07 17:35 | 49.40390 | 2.52022 | 36000 ft | 449 kts | 329° |
| 2026-05-07 17:36 | 49.45807 | 2.47175 | 35999 ft | 450 kts | 329° |
| 2026-05-07 17:36 | 49.51240 | 2.42418 | 35994 ft | 450 kts | 334° |
| 2026-05-07 17:37 | 49.53152 | 2.41192 | 35990 ft | 450 kts | 341° |
| 2026-05-07 17:38 | 49.53849 | 2.40840 | 35995 ft | 450 kts | 342° |
| 2026-05-07 17:38 | 49.59709 | 2.38212 | 36003 ft | 450 kts | 344° |
| 2026-05-07 17:39 | 49.65743 | 2.35584 | 36000 ft | 450 kts | 343° |
| 2026-05-07 17:39 | 49.71759 | 2.32893 | 36004 ft | 450 kts | 343° |
| 2026-05-07 17:40 | 49.77731 | 2.30173 | 36004 ft | 450 kts | 343° |
| 2026-05-07 17:40 | 49.83750 | 2.27413 | 35999 ft | 450 kts | 343° |
| 2026-05-07 17:41 | 49.89759 | 2.24653 | 36004 ft | 450 kts | 343° |
| 2026-05-07 17:41 | 49.95772 | 2.21886 | 36004 ft | 450 kts | 343° |
| 2026-05-07 17:42 | 50.01784 | 2.19113 | 36001 ft | 450 kts | 343° |
| 2026-05-07 17:42 | 50.07792 | 2.16334 | 36001 ft | 450 kts | 343° |
| 2026-05-07 17:43 | 50.13594 | 2.13645 | 35999 ft | 450 kts | 343° |
| 2026-05-07 17:43 | 50.19601 | 2.10851 | 36001 ft | 450 kts | 343° |
| 2026-05-07 17:44 | 50.25602 | 2.08056 | 36000 ft | 450 kts | 343° |
| 2026-05-07 17:44 | 50.31604 | 2.05254 | 36002 ft | 450 kts | 343° |
| 2026-05-07 17:45 | 50.37439 | 2.01730 | 36003 ft | 449 kts | 329° |
| 2026-05-07 17:45 | 50.42394 | 1.95829 | 36007 ft | 448 kts | 318° |
| 2026-05-07 17:46 | 50.47047 | 1.89309 | 35996 ft | 449 kts | 318° |
| 2026-05-07 17:46 | 50.51724 | 1.82820 | 36004 ft | 449 kts | 318° |
| 2026-05-07 17:47 | 50.56401 | 1.76404 | 36000 ft | 449 kts | 318° |
| 2026-05-07 17:47 | 50.61111 | 1.69944 | 36002 ft | 449 kts | 318° |
| 2026-05-07 17:48 | 50.65812 | 1.63469 | 36002 ft | 449 kts | 318° |
| 2026-05-07 17:48 | 50.70508 | 1.56971 | 36000 ft | 449 kts | 318° |
| 2026-05-07 17:49 | 50.75202 | 1.50462 | 35999 ft | 449 kts | 318° |
| 2026-05-07 17:49 | 50.79894 | 1.43936 | 36001 ft | 449 kts | 318° |
| 2026-05-07 17:50 | 50.84583 | 1.37396 | 36002 ft | 449 kts | 318° |
| 2026-05-07 17:50 | 50.89271 | 1.30861 | 36001 ft | 449 kts | 320° |
| 2026-05-07 17:51 | 50.94426 | 1.25423 | 36005 ft | 449 kts | 329° |
| 2026-05-07 17:51 | 50.99805 | 1.20411 | 36000 ft | 449 kts | 329° |
| 2026-05-07 17:52 | 51.05183 | 1.15354 | 36001 ft | 449 kts | 328° |
| 2026-05-07 17:52 | 51.10530 | 1.10228 | 36001 ft | 449 kts | 328° |
| 2026-05-07 17:53 | 51.15866 | 1.05058 | 35999 ft | 449 kts | 328° |
| 2026-05-07 17:53 | 51.21195 | 0.99874 | 36002 ft | 449 kts | 328° |
| 2026-05-07 17:54 | 51.26531 | 0.94670 | 36001 ft | 449 kts | 328° |
| 2026-05-07 17:54 | 51.31834 | 0.89485 | 36000 ft | 449 kts | 328° |
| 2026-05-07 17:55 | 51.37164 | 0.84261 | 36000 ft | 449 kts | 328° |
| 2026-05-07 17:55 | 51.42496 | 0.79020 | 35999 ft | 449 kts | 328° |
| 2026-05-07 17:56 | 51.47817 | 0.73775 | 36003 ft | 449 kts | 328° |
| 2026-05-07 17:56 | 51.53145 | 0.68510 | 36002 ft | 449 kts | 328° |